Time;durP1;ratioP1;P1;durP2;ratioP2;P2;SDS_P1;SDS_P2;PMS_P1;PMS_P2;Temp;Humidity;BMP_temperature;BMP_pressure;BME280_temperature;BME280_humidity;BME280_pressure;Samples;Min_cycle;Max_cycle;Signal;HPM_P1;HPM_P2
2022/08/03 00:01:36;;;;;;;6.45;5.85;;;;;;;16.53;88.09;96848.30;1693782;83;21026;-83
2022/08/03 00:04:03;;;;;;;6.65;6.05;;;;;;;16.49;88.10;96853.16;1694965;83;21042;-83
2022/08/03 00:06:29;;;;;;;7.28;6.15;;;;;;;16.47;88.36;96847.31;1693678;83;21380;-83
2022/08/03 00:08:54;;;;;;;6.62;6.10;;;;;;;16.45;88.32;96851.97;1695735;83;20999;-83
2022/08/03 00:11:20;;;;;;;6.67;5.97;;;;;;;16.44;88.21;96853.48;1696516;83;21059;-82
2022/08/03 00:13:46;;;;;;;6.70;5.97;;;;;;;16.44;88.38;96850.87;1697286;83;21460;-83
2022/08/03 00:16:12;;;;;;;6.45;5.62;;;;;;;16.43;88.61;96857.09;1696974;83;21046;-83
2022/08/03 00:18:39;;;;;;;6.55;5.70;;;;;;;16.41;88.80;96849.94;1695957;83;22158;-83
2022/08/03 00:21:04;;;;;;;6.97;6.15;;;;;;;16.38;88.79;96848.55;1697246;83;21102;-83
2022/08/03 00:23:30;;;;;;;7.55;5.95;;;;;;;16.37;88.74;96853.48;1694791;83;21049;-83
2022/08/03 00:25:56;;;;;;;7.05;6.00;;;;;;;16.38;88.81;96849.05;1655724;85;21045;-83
2022/08/03 00:28:22;;;;;;;6.78;6.10;;;;;;;16.37;88.99;96848.25;1640894;86;21034;-82
2022/08/03 00:30:49;;;;;;;7.22;6.03;;;;;;;16.37;89.15;96844.81;1612521;87;21953;-83
2022/08/03 00:33:15;;;;;;;6.30;5.70;;;;;;;16.36;89.26;96849.77;1633988;86;21011;-82
2022/08/03 00:35:41;;;;;;;6.30;5.80;;;;;;;16.34;89.42;96854.41;1635083;86;21389;-83
2022/08/03 00:38:07;;;;;;;6.90;6.20;;;;;;;16.32;89.43;96849.89;1635265;86;20963;-83
2022/08/03 00:40:32;;;;;;;6.55;5.95;;;;;;;16.31;89.42;96845.66;1638637;86;21064;-82
2022/08/03 00:43:04;;;;;;;6.90;5.78;;;;;;;16.30;89.36;96847.47;1640531;86;21407;-83
2022/08/03 00:45:33;;;;;;;6.30;5.70;;;;;;;16.29;89.48;96839.81;1643512;85;21049;-83
2022/08/03 00:47:59;;;;;;;6.75;6.12;;;;;;;16.29;89.46;96843.24;1697329;83;21063;-83
2022/08/03 00:50:27;;;;;;;5.42;4.92;;;;;;;16.28;89.37;96840.32;1696715;83;21039;-83
2022/08/03 00:52:55;;;;;;;5.75;5.25;;;;;;;16.27;89.36;96841.34;1688385;83;21108;-83
2022/08/03 00:55:20;;;;;;;5.83;5.22;;;;;;;16.26;89.44;96835.76;1691258;83;21010;-83
2022/08/03 00:57:46;;;;;;;5.60;4.97;;;;;;;16.25;89.28;96839.91;1691572;83;21268;-83
2022/08/03 01:00:15;;;;;;;6.37;5.83;;;;;;;16.23;89.29;96834.87;1694594;83;21331;-83
2022/08/03 01:02:41;;;;;;;6.30;5.37;;;;;;;16.20;89.30;96834.78;1693064;83;21003;-83
2022/08/03 01:05:08;;;;;;;6.03;5.28;;;;;;;16.18;89.45;96835.49;1674016;83;21425;-83
2022/08/03 01:08:03;;;;;;;5.72;5.22;;;;;;;16.18;89.62;96834.69;1666833;85;20956;-83
2022/08/03 01:10:40;;;;;;;6.60;6.10;;;;;;;16.17;89.74;96840.44;1693851;83;21023;-83
2022/08/03 01:13:35;;;;;;;9.30;6.55;;;;;;;16.17;89.73;96837.02;1690108;83;21101;-83
2022/08/03 01:16:25;;;;;;;6.83;5.87;;;;;;;16.17;89.70;96844.38;1688522;83;20987;-83
2022/08/03 01:19:08;;;;;;;7.28;5.62;;;;;;;16.15;89.86;96841.16;1692658;83;20994;-85
2022/08/03 01:21:58;;;;;;;6.37;5.80;;;;;;;16.12;90.22;96841.57;1693067;83;20981;-85
2022/08/03 01:25:03;;;;;;;6.60;6.00;;;;;;;16.11;90.30;96848.33;1692195;83;21334;-85
2022/08/03 01:28:20;;;;;;;8.43;6.67;;;;;;;16.06;90.46;96846.80;1691259;83;20970;-84
2022/08/03 01:30:46;;;;;;;6.50;6.00;;;;;;;16.03;90.62;96847.22;1693119;83;21035;-85
2022/08/03 01:33:19;;;;;;;6.92;6.10;;;;;;;15.99;90.83;96849.45;1692279;83;21369;-85
2022/08/03 01:35:56;;;;;;;7.40;6.28;;;;;;;15.98;91.11;96854.90;1693929;83;21402;-83
2022/08/03 01:38:26;;;;;;;7.40;6.70;;;;;;;15.96;91.20;96853.80;1691922;83;21044;-83
2022/08/03 01:40:53;;;;;;;7.37;6.78;;;;;;;15.96;91.24;96855.61;1689686;83;21075;-83
2022/08/03 01:43:22;;;;;;;6.45;5.90;;;;;;;15.96;90.91;96855.61;1685199;83;21576;-83
2022/08/03 01:45:48;;;;;;;7.83;6.60;;;;;;;15.98;90.84;96857.52;1686516;83;21084;-83
2022/08/03 01:48:16;;;;;;;6.62;5.95;;;;;;;15.99;91.09;96852.07;1684398;83;21496;-83
2022/08/03 01:50:41;;;;;;;6.58;5.97;;;;;;;16.02;91.22;96858.21;1687809;83;20968;-83
2022/08/03 01:53:08;;;;;;;7.08;5.83;;;;;;;16.03;91.19;96857.20;1670386;83;20995;-83
2022/08/03 01:55:34;;;;;;;6.67;5.70;;;;;;;16.05;91.33;96853.06;1686755;83;20976;-83
2022/08/03 01:58:02;;;;;;;6.40;5.80;;;;;;;16.05;91.34;96851.25;1653050;85;21087;-83
2022/08/03 02:00:28;;;;;;;6.62;5.97;;;;;;;16.07;91.28;96848.41;1687602;83;21370;-83
2022/08/03 02:02:54;;;;;;;7.03;6.40;;;;;;;16.08;91.40;96841.66;1684586;83;20932;-83
2022/08/03 02:05:20;;;;;;;6.97;6.03;;;;;;;16.09;91.45;96848.51;1629713;86;21022;-83
2022/08/03 02:07:45;;;;;;;8.03;6.37;;;;;;;16.10;91.36;96842.25;1677204;83;21056;-83
2022/08/03 02:10:13;;;;;;;6.08;5.50;;;;;;;16.10;91.34;96837.01;1654853;85;21059;-83
2022/08/03 02:12:38;;;;;;;8.93;6.28;;;;;;;16.11;91.39;96834.72;1687002;83;21003;-83
2022/08/03 02:15:05;;;;;;;6.92;6.15;;;;;;;16.11;91.49;96832.60;1686281;83;21019;-83
2022/08/03 02:17:31;;;;;;;6.70;6.10;;;;;;;16.10;91.54;96834.39;1687285;83;21394;-85
2022/08/03 02:19:57;;;;;;;6.50;5.90;;;;;;;16.11;91.59;96832.09;1658072;83;21073;-84
2022/08/03 02:22:23;;;;;;;7.28;6.58;;;;;;;16.14;91.42;96829.56;1685529;83;21352;-86
2022/08/03 02:24:49;;;;;;;7.08;6.47;;;;;;;16.15;91.45;96827.23;1686820;83;20983;-86
2022/08/03 02:27:23;;;;;;;7.28;6.50;;;;;;;16.19;91.43;96834.48;1653099;85;21000;-86
2022/08/03 02:29:53;;;;;;;6.85;6.22;;;;;;;16.21;91.41;96838.20;1653853;85;20976;-86
2022/08/03 02:32:24;;;;;;;7.22;6.62;;;;;;;16.21;91.59;96830.34;1669562;85;21053;-84
2022/08/03 02:34:52;;;;;;;7.25;6.55;;;;;;;16.21;91.81;96839.01;1661893;85;21417;-84
2022/08/03 02:37:18;;;;;;;6.72;6.15;;;;;;;16.19;91.97;96827.12;1663505;85;21315;-85
2022/08/03 02:39:44;;;;;;;8.73;7.00;;;;;;;16.19;92.15;96834.98;1648418;85;21067;-85
2022/08/03 02:42:10;;;;;;;8.83;6.37;;;;;;;16.17;92.15;96830.45;1696390;84;21114;-85
2022/08/03 02:44:35;;;;;;;6.65;6.03;;;;;;;16.17;92.24;96829.15;1672530;85;21063;-85
2022/08/03 02:47:06;;;;;;;6.92;6.22;;;;;;;16.16;92.20;96834.09;1668727;84;22065;-84
2022/08/03 02:49:32;;;;;;;7.40;6.70;;;;;;;16.13;92.30;96833.20;1705337;82;21114;-84
2022/08/03 02:51:58;;;;;;;6.62;6.05;;;;;;;16.10;92.48;96828.34;1707519;82;21047;-84
2022/08/03 02:54:24;;;;;;;7.40;6.80;;;;;;;16.08;92.42;96823.81;1707727;82;21015;-84
2022/08/03 02:56:49;;;;;;;6.85;6.20;;;;;;;16.09;92.44;96826.73;1707925;82;21416;-85
2022/08/03 02:59:16;;;;;;;6.95;5.55;;;;;;;16.08;92.50;96831.67;1708554;82;20978;-84
2022/08/03 03:01:41;;;;;;;6.42;5.92;;;;;;;16.08;92.42;96831.67;1703435;82;22191;-85
2022/08/03 03:04:07;;;;;;;5.85;5.35;;;;;;;16.08;92.40;96832.98;1624204;84;20987;-85
2022/08/03 03:06:33;;;;;;;7.28;6.45;;;;;;;16.06;92.44;96829.27;1675464;82;20961;-84
2022/08/03 03:08:59;;;;;;;6.90;6.40;;;;;;;16.05;92.44;96828.97;1656192;82;21018;-82
2022/08/03 03:11:25;;;;;;;7.85;6.40;;;;;;;16.03;92.57;96828.37;1708127;82;21563;-83
2022/08/03 03:13:51;;;;;;;8.03;7.28;;;;;;;16.04;92.89;96834.41;1707952;82;21059;-83
2022/08/03 03:16:17;;;;;;;7.78;6.67;;;;;;;16.01;92.97;96830.39;1707718;82;21030;-83
2022/08/03 03:18:44;;;;;;;6.95;6.30;;;;;;;16.01;92.99;96837.45;1707310;82;20969;-83
2022/08/03 03:21:11;;;;;;;7.28;6.58;;;;;;;16.00;92.98;96838.46;1708045;82;21074;-82
2022/08/03 03:23:39;;;;;;;6.67;6.08;;;;;;;15.98;93.03;96837.36;1707918;82;20970;-83
2022/08/03 03:26:05;;;;;;;6.92;6.17;;;;;;;15.96;93.20;96844.63;1708042;82;21028;-83
2022/08/03 03:28:31;;;;;;;6.28;5.78;;;;;;;15.95;93.16;96840.39;1706990;82;21020;-83
2022/08/03 03:30:57;;;;;;;7.05;6.37;;;;;;;15.97;93.12;96844.12;1707952;82;21001;-83
2022/08/03 03:33:23;;;;;;;6.65;6.05;;;;;;;15.98;93.04;96845.22;1707470;82;20963;-82
2022/08/03 03:35:50;;;;;;;6.22;4.97;;;;;;;16.00;92.90;96848.95;1676526;84;20953;-83
2022/08/03 03:38:16;;;;;;;5.62;5.12;;;;;;;15.99;92.56;96841.59;1706172;82;21353;-83
2022/08/03 03:40:42;;;;;;;5.67;5.17;;;;;;;15.99;92.36;96848.14;1700884;82;21086;-83
2022/08/03 03:43:09;;;;;;;6.78;5.12;;;;;;;15.99;92.33;96852.58;1648023;86;21451;-83
2022/08/03 03:45:35;;;;;;;6.10;5.47;;;;;;;15.99;92.24;96851.27;1652321;87;21323;-82
2022/08/03 03:48:03;;;;;;;5.83;5.33;;;;;;;15.98;92.31;96851.77;1668770;85;21089;-83
2022/08/03 03:50:31;;;;;;;5.78;5.28;;;;;;;15.98;92.26;96848.34;1682897;85;21013;-83
2022/08/03 03:52:57;;;;;;;6.65;6.10;;;;;;;15.98;92.40;96851.77;1683228;85;21044;-83
2022/08/03 03:55:23;;;;;;;7.20;6.47;;;;;;;16.00;92.68;96852.87;1653901;85;20957;-82
2022/08/03 03:57:49;;;;;;;7.58;6.53;;;;;;;16.01;92.84;96851.36;1655133;85;21045;-83
2022/08/03 04:00:16;;;;;;;6.85;6.20;;;;;;;16.04;93.10;96858.00;1647199;85;21254;-83
2022/08/03 04:02:43;;;;;;;9.10;6.92;;;;;;;16.06;93.31;96856.78;1664157;85;21017;-82
2022/08/03 04:11:19;;;;;;;9.30;7.15;;;;;;;16.26;93.79;96863.80;1667074;85;21498;-86
2022/08/03 04:14:05;;;;;;;9.10;6.65;;;;;;;16.36;93.79;96861.56;1625209;87;21277;-86
2022/08/03 04:16:37;;;;;;;7.10;6.45;;;;;;;16.44;93.65;96866.60;1641183;86;20980;-83
2022/08/03 04:19:17;;;;;;;7.20;6.65;;;;;;;16.51;93.64;96863.44;1634838;86;21028;-84
2022/08/03 04:21:43;;;;;;;7.37;6.67;;;;;;;16.57;93.74;96867.84;1648280;86;21292;-84
2022/08/03 04:24:09;;;;;;;7.92;7.05;;;;;;;16.60;93.79;96869.27;1609235;88;20978;-83
2022/08/03 04:26:38;;;;;;;7.33;6.65;;;;;;;16.63;93.74;96870.97;1637350;85;22187;-83
2022/08/03 04:29:05;;;;;;;8.58;7.10;;;;;;;16.70;93.88;96872.27;1669218;85;21398;-84
2022/08/03 04:31:30;;;;;;;8.18;7.37;;;;;;;16.72;93.85;96868.42;1650438;85;21036;-83
2022/08/03 04:33:56;;;;;;;8.45;7.12;;;;;;;16.74;93.94;96875.58;1648330;85;21063;-83
2022/08/03 04:36:25;;;;;;;7.37;6.78;;;;;;;16.77;94.06;96877.01;1676254;85;21389;-84
2022/08/03 04:39:25;;;;;;;8.50;7.70;;;;;;;16.78;94.23;96877.30;1652390;85;21355;-83
2022/08/03 04:41:59;;;;;;;8.80;7.90;;;;;;;16.78;94.35;96878.11;1638035;86;21071;-83
2022/08/03 04:44:24;;;;;;;8.13;7.37;;;;;;;16.81;94.56;96883.44;1669777;85;21357;-83
2022/08/03 04:46:50;;;;;;;7.75;7.05;;;;;;;16.86;94.38;96880.98;1667428;85;20964;-83
2022/08/03 04:49:16;;;;;;;7.58;6.95;;;;;;;16.94;94.48;96883.90;1656637;85;21068;-83
2022/08/03 04:51:42;;;;;;;7.72;7.03;;;;;;;17.00;94.57;96887.79;1619651;87;21004;-83
2022/08/03 04:54:18;;;;;;;7.80;7.05;;;;;;;17.04;94.41;96888.97;1635777;86;20971;-83
2022/08/03 04:56:43;;;;;;;7.53;6.90;;;;;;;17.05;94.36;96891.09;1635758;86;21014;-82
2022/08/03 04:59:09;;;;;;;8.13;7.37;;;;;;;17.05;94.42;96893.20;1636224;86;21480;-83
2022/08/03 05:01:35;;;;;;;8.50;7.08;;;;;;;17.06;94.57;96891.39;1635437;86;20970;-83
2022/08/03 05:04:01;;;;;;;8.70;7.78;;;;;;;17.04;94.70;96885.03;1630991;86;21030;-82
2022/08/03 05:06:27;;;;;;;7.67;7.08;;;;;;;17.07;94.83;96884.61;1635246;86;21383;-83
2022/08/03 05:08:53;;;;;;;8.25;7.55;;;;;;;17.12;94.97;96888.45;1635941;86;20971;-85
2022/08/03 05:11:19;;;;;;;8.25;7.45;;;;;;;17.17;94.98;96885.98;1635907;86;21408;-85
2022/08/03 05:13:45;;;;;;;7.50;6.80;;;;;;;17.24;95.10;96885.43;1635326;86;21011;-85
2022/08/03 05:16:12;;;;;;;7.67;7.00;;;;;;;17.30;95.06;96891.17;1647191;85;20980;-85
2022/08/03 05:18:39;;;;;;;7.60;6.75;;;;;;;17.35;95.01;96890.82;1657273;85;20953;-85
2022/08/03 05:21:05;;;;;;;8.00;7.20;;;;;;;17.39;94.91;96891.20;1653811;85;21283;-85
2022/08/03 05:23:30;;;;;;;7.70;7.08;;;;;;;17.42;94.81;96893.93;1659184;85;21056;-83
2022/08/03 05:25:56;;;;;;;8.10;7.40;;;;;;;17.43;94.81;96891.60;1654698;85;20984;-82
2022/08/03 05:28:22;;;;;;;8.58;7.35;;;;;;;17.46;94.81;96900.37;1667467;85;21033;-85
2022/08/03 05:30:48;;;;;;;7.92;7.22;;;;;;;17.48;94.88;96898.33;1664013;84;20987;-85
2022/08/03 05:33:13;;;;;;;7.85;7.15;;;;;;;17.50;94.95;96898.41;1681214;85;21403;-85
2022/08/03 05:35:39;;;;;;;7.08;6.47;;;;;;;17.53;95.07;96898.48;1649176;86;21111;-85
2022/08/03 05:38:05;;;;;;;7.80;7.08;;;;;;;17.54;95.26;96896.16;1648064;87;20985;-85
2022/08/03 05:40:31;;;;;;;7.22;6.40;;;;;;;17.57;95.33;96897.88;1647162;85;20940;-84
2022/08/03 05:42:57;;;;;;;7.33;6.62;;;;;;;17.60;95.41;96895.32;1653499;85;21016;-84
2022/08/03 05:45:24;;;;;;;9.28;7.67;;;;;;;17.62;95.57;96899.85;1610491;86;21328;-85
2022/08/03 05:47:49;;;;;;;7.53;6.65;;;;;;;17.64;95.69;96900.44;1627066;86;21390;-84
2022/08/03 05:50:16;;;;;;;7.72;7.03;;;;;;;17.66;95.72;96903.14;1635458;86;20981;-85
2022/08/03 05:52:42;;;;;;;7.75;7.15;;;;;;;17.69;95.76;96900.63;1634753;86;21066;-84
2022/08/03 05:55:09;;;;;;;7.47;6.60;;;;;;;17.68;95.74;96901.13;1636326;86;21443;-84
2022/08/03 05:57:35;;;;;;;7.80;7.08;;;;;;;17.70;95.81;96908.30;1636036;86;21411;-85
2022/08/03 06:00:04;;;;;;;7.05;6.45;;;;;;;17.74;96.00;96902.12;1633233;86;21024;-84
2022/08/03 06:02:30;;;;;;;7.80;7.08;;;;;;;17.79;95.97;96907.53;1685909;83;21019;-85
2022/08/03 06:04:56;;;;;;;7.30;6.60;;;;;;;17.83;95.94;96901.33;1693245;83;21103;-85
2022/08/03 06:07:21;;;;;;;7.80;7.05;;;;;;;17.86;95.91;96902.21;1694132;83;21074;-82
2022/08/03 06:09:47;;;;;;;7.40;6.70;;;;;;;17.87;95.78;96904.63;1693480;83;20943;-83
2022/08/03 06:12:13;;;;;;;8.00;7.00;;;;;;;17.89;95.77;96906.52;1693566;83;21007;-83
2022/08/03 06:14:39;;;;;;;7.45;6.25;;;;;;;17.92;95.75;96901.38;1686242;83;21038;-83
2022/08/03 06:17:04;;;;;;;8.43;7.25;;;;;;;17.94;95.79;96904.08;1696576;83;21302;-83
2022/08/03 06:19:30;;;;;;;8.08;7.17;;;;;;;17.98;95.88;96912.33;1689290;83;20981;-83
2022/08/03 06:21:56;;;;;;;7.95;7.25;;;;;;;18.03;95.95;96905.91;1683126;83;21007;-83
2022/08/03 06:24:21;;;;;;;7.47;6.78;;;;;;;18.04;95.91;96897.00;1690349;83;21390;-83
2022/08/03 06:26:47;;;;;;;7.22;6.53;;;;;;;18.15;96.14;96907.33;1685262;83;20952;-83
2022/08/03 06:29:13;;;;;;;7.55;6.95;;;;;;;18.25;96.33;96908.45;1704397;83;21103;-83
2022/08/03 06:31:39;;;;;;;8.65;7.92;;;;;;;18.34;96.50;96906.84;1692518;83;21027;-83
2022/08/03 06:34:05;;;;;;;7.33;6.72;;;;;;;18.44;96.53;96909.27;1704402;83;20963;-83
2022/08/03 06:36:32;;;;;;;7.40;6.80;;;;;;;18.57;96.31;96907.02;1702427;83;21336;-83
2022/08/03 06:38:58;;;;;;;7.03;6.33;;;;;;;18.70;96.33;96906.08;1688636;84;21426;-84
2022/08/03 06:41:25;;;;;;;7.05;6.45;;;;;;;18.82;96.30;96903.01;1686278;83;21031;-84
2022/08/03 06:43:51;;;;;;;7.72;7.12;;;;;;;18.91;95.94;96904.84;1689004;83;21540;-84
2022/08/03 06:46:17;;;;;;;10.15;9.35;;;;;;;19.00;95.85;96908.25;1675753;84;21413;-84
2022/08/03 06:48:43;;;;;;;9.68;8.88;;;;;;;19.11;95.47;96911.45;1687067;83;20976;-84
2022/08/03 06:51:09;;;;;;;8.88;8.18;;;;;;;19.22;95.42;96915.18;1699775;83;21350;-84
2022/08/03 06:53:35;;;;;;;8.58;7.87;;;;;;;19.34;95.31;96919.95;1685639;83;20984;-84
2022/08/03 06:56:01;;;;;;;9.20;8.15;;;;;;;19.49;95.06;96919.55;1661131;83;20973;-84
2022/08/03 06:58:26;;;;;;;10.93;10.03;;;;;;;19.58;94.27;96920.88;1685702;83;20982;-84
2022/08/03 07:00:52;;;;;;;11.78;10.68;;;;;;;19.65;93.69;96918.13;1685188;83;21438;-84
2022/08/03 07:03:18;;;;;;;11.00;9.88;;;;;;;19.75;93.02;96917.08;1685561;83;20959;-83
2022/08/03 07:05:46;;;;;;;10.90;9.73;;;;;;;19.86;92.84;96919.46;1688115;85;20956;-84
2022/08/03 07:08:13;;;;;;;10.95;9.83;;;;;;;19.94;92.87;96923.88;1685833;83;20966;-85
2022/08/03 07:10:38;;;;;;;11.03;10.13;;;;;;;20.06;92.45;96921.25;1681291;83;20994;-85
2022/08/03 07:13:04;;;;;;;10.50;9.53;;;;;;;20.16;91.52;96922.79;1685356;83;21032;-84
2022/08/03 07:15:30;;;;;;;10.25;9.30;;;;;;;20.29;91.62;96928.36;1688154;83;20955;-84
2022/08/03 07:17:56;;;;;;;10.23;9.23;;;;;;;20.36;89.75;96922.47;1687662;83;21075;-85
2022/08/03 07:20:22;;;;;;;8.80;7.78;;;;;;;20.44;90.07;96921.34;1684813;83;21386;-84
2022/08/03 07:22:48;;;;;;;8.63;7.67;;;;;;;20.46;90.51;96921.91;1687347;83;20973;-84
2022/08/03 07:25:14;;;;;;;7.75;7.05;;;;;;;20.48;91.00;96918.52;1686877;83;21278;-84
2022/08/03 07:27:45;;;;;;;8.58;7.85;;;;;;;20.54;91.01;96921.56;1669641;85;21039;-84
2022/08/03 07:30:11;;;;;;;7.65;6.87;;;;;;;20.50;90.67;96921.23;1684403;83;21325;-83
2022/08/03 07:32:37;;;;;;;8.10;7.33;;;;;;;20.44;90.19;96928.73;1686262;83;21005;-84
2022/08/03 07:35:05;;;;;;;8.00;6.87;;;;;;;20.47;89.48;96927.47;1687342;83;21378;-83
2022/08/03 07:37:31;;;;;;;7.67;7.03;;;;;;;20.56;89.52;96918.98;1650271;85;21066;-84
2022/08/03 07:39:57;;;;;;;8.40;7.67;;;;;;;20.58;89.66;96926.14;1683105;85;21074;-84
2022/08/03 07:42:23;;;;;;;8.78;8.00;;;;;;;20.54;87.36;96914.97;1674083;83;21039;-84
2022/08/03 07:44:49;;;;;;;7.22;6.62;;;;;;;20.64;87.58;96924.41;1678131;84;21059;-83
2022/08/03 07:47:20;;;;;;;6.65;5.97;;;;;;;20.65;88.49;96924.69;1672497;85;21048;-83
2022/08/03 07:49:46;;;;;;;8.03;7.33;;;;;;;20.64;88.50;96921.77;1659468;84;21040;-83
2022/08/03 07:54:56;;;;;;;7.28;6.60;;;;;;;20.59;87.46;96928.27;1674919;84;21008;-84
2022/08/03 07:57:22;;;;;;;9.30;8.40;;;;;;;20.57;87.57;96925.86;1673218;84;21055;-84
2022/08/03 07:59:48;;;;;;;8.60;7.90;;;;;;;20.64;86.30;96925.20;1692357;84;21407;-83
2022/08/03 08:02:14;;;;;;;8.85;7.85;;;;;;;20.72;85.98;96930.66;1671465;84;20953;-83
2022/08/03 08:04:40;;;;;;;7.03;6.22;;;;;;;20.77;84.37;96928.12;1677290;84;20999;-84
2022/08/03 08:07:06;;;;;;;7.25;6.75;;;;;;;20.88;85.45;96925.98;1674796;84;21000;-83
2022/08/03 08:09:31;;;;;;;7.05;6.45;;;;;;;20.97;82.21;96923.76;1687562;84;20977;-84
2022/08/03 08:11:57;;;;;;;6.47;5.87;;;;;;;21.06;80.20;96930.30;1685880;84;21094;-84
2022/08/03 08:14:23;;;;;;;6.65;6.03;;;;;;;21.20;79.13;96926.86;1681831;84;21064;-84
2022/08/03 08:16:48;;;;;;;6.33;5.72;;;;;;;21.32;79.33;96932.14;1692052;84;21288;-84
2022/08/03 08:19:15;;;;;;;6.03;5.47;;;;;;;21.42;78.77;96933.11;1693816;84;20948;-84
2022/08/03 08:21:42;;;;;;;6.47;5.87;;;;;;;21.58;79.00;96925.73;1677182;84;21043;-84
2022/08/03 08:24:09;;;;;;;5.50;5.10;;;;;;;21.72;79.85;96930.20;1682223;84;20960;-83
2022/08/03 08:26:36;;;;;;;6.03;5.42;;;;;;;21.87;78.22;96930.98;1671227;84;21339;-84
2022/08/03 08:29:02;;;;;;;5.05;4.50;;;;;;;22.01;78.98;96932.27;1676399;84;21023;-84
2022/08/03 08:31:28;;;;;;;5.12;4.58;;;;;;;22.13;75.64;96931.70;1682598;84;20955;-85
2022/08/03 08:33:54;;;;;;;6.45;5.20;;;;;;;22.21;74.64;96934.98;1697325;84;20964;-84
2022/08/03 08:36:19;;;;;;;6.45;5.70;;;;;;;22.10;76.98;96932.16;1682329;84;21008;-84
2022/08/03 08:38:45;;;;;;;6.42;5.83;;;;;;;22.00;77.98;96929.34;1697073;84;21039;-85
2022/08/03 08:41:12;;;;;;;5.00;4.50;;;;;;;21.93;78.47;96938.47;1659654;84;21012;-84
2022/08/03 08:43:39;;;;;;;4.75;4.30;;;;;;;21.92;75.92;96938.19;1680566;83;21011;-84
2022/08/03 08:46:08;;;;;;;5.30;4.80;;;;;;;21.89;76.17;96942.13;1685974;83;21032;-85
2022/08/03 08:48:33;;;;;;;5.25;4.83;;;;;;;21.90;77.21;96933.14;1676834;83;21346;-83
2022/08/03 08:50:59;;;;;;;4.97;4.58;;;;;;;21.82;77.44;96931.70;1686783;83;21007;-85
2022/08/03 08:53:27;;;;;;;5.05;4.55;;;;;;;21.73;77.60;96934.45;1684244;83;21051;-84
2022/08/03 08:55:56;;;;;;;5.87;5.37;;;;;;;21.69;77.92;96932.53;1684439;84;21039;-84
2022/08/03 08:58:22;;;;;;;5.10;4.62;;;;;;;21.66;77.14;96932.50;1686663;83;21051;-85
2022/08/03 09:00:48;;;;;;;4.75;4.35;;;;;;;21.63;78.02;96934.27;1687932;83;21052;-85
2022/08/03 09:03:14;;;;;;;3.80;3.50;;;;;;;21.65;78.31;96938.83;1687305;83;21441;-85
2022/08/03 09:05:41;;;;;;;3.85;3.55;;;;;;;21.61;78.74;96934.23;1687253;83;21031;-84
2022/08/03 09:08:07;;;;;;;6.12;4.75;;;;;;;21.53;78.55;96936.23;1686303;83;21031;-84
2022/08/03 09:10:33;;;;;;;5.25;4.37;;;;;;;21.45;78.79;96937.12;1687705;83;21015;-84
2022/08/03 09:12:59;;;;;;;5.50;4.37;;;;;;;21.35;79.17;96942.23;1684285;83;22203;-84
2022/08/03 09:15:30;;;;;;;4.65;4.17;;;;;;;21.33;80.00;96938.52;1672886;83;21027;-84
2022/08/03 09:17:58;;;;;;;5.20;4.50;;;;;;;21.39;80.51;96937.55;1670103;83;21384;-85
2022/08/03 09:20:28;;;;;;;5.35;4.85;;;;;;;21.62;80.66;96942.44;1670561;83;21091;-84
2022/08/03 09:22:57;;;;;;;5.67;5.28;;;;;;;21.83;79.33;96939.92;1670073;83;20967;-84
2022/08/03 09:25:38;;;;;;;5.60;5.20;;;;;;;21.84;79.68;96943.38;1673198;83;21533;-84
2022/08/03 09:28:14;;;;;;;5.65;5.10;;;;;;;21.97;79.92;96943.06;1677649;83;21410;-85
2022/08/03 09:30:45;;;;;;;5.70;5.20;;;;;;;22.19;80.17;96943.69;1683196;83;21141;-84
2022/08/03 09:33:15;;;;;;;5.60;5.10;;;;;;;22.34;79.67;96947.89;1681253;83;20960;-85
2022/08/03 09:35:43;;;;;;;5.67;5.17;;;;;;;22.53;80.03;96935.98;1687751;83;20949;-85
2022/08/03 09:38:12;;;;;;;5.70;5.28;;;;;;;22.68;80.11;96938.03;1685775;83;21012;-85
2022/08/03 09:40:38;;;;;;;6.83;6.12;;;;;;;22.79;75.56;96938.98;1670226;84;21004;-84
2022/08/03 09:43:06;;;;;;;7.58;5.50;;;;;;;22.97;74.24;96928.91;1675044;83;21437;-85
2022/08/03 09:45:35;;;;;;;5.50;4.95;;;;;;;22.97;74.24;96928.91;1684735;83;21031;-85
2022/08/03 09:48:24;;;;;;;5.45;4.97;;;;;;;23.18;75.60;96931.27;1684560;83;21047;-85
2022/08/03 09:50:54;;;;;;;5.70;5.20;;;;;;;23.28;73.85;96931.38;1691493;83;21006;-85
2022/08/03 09:53:20;;;;;;;5.15;4.10;;;;;;;23.44;74.78;96928.89;1685107;83;21059;-85
2022/08/03 09:55:56;;;;;;;4.70;4.15;;;;;;;23.50;70.13;96933.19;1687187;83;21066;-85
2022/08/03 09:58:29;;;;;;;5.15;4.72;;;;;;;23.52;69.74;96936.39;1684303;83;21352;-85
2022/08/03 10:01:06;;;;;;;4.87;4.35;;;;;;;23.63;69.79;96928.84;1684520;83;21371;-84
2022/08/03 10:03:34;;;;;;;6.30;4.45;;;;;;;23.75;70.08;96932.64;1679032;83;21049;-84
2022/08/03 10:06:21;;;;;;;6.03;5.42;;;;;;;23.82;69.45;96934.05;1685618;83;21062;-84
2022/08/03 10:08:50;;;;;;;5.17;4.70;;;;;;;23.83;64.85;96926.36;1682632;85;20990;-85
2022/08/03 10:11:29;;;;;;;4.92;4.53;;;;;;;23.90;68.13;96930.92;1676647;85;20955;-84
2022/08/03 10:13:55;;;;;;;5.08;4.67;;;;;;;23.92;63.77;96927.52;1656462;85;21095;-84
2022/08/03 10:16:21;;;;;;;4.90;4.40;;;;;;;23.97;62.34;96928.59;1685472;83;21043;-83
2022/08/03 10:18:47;;;;;;;4.75;4.30;;;;;;;24.01;65.69;96925.70;1666901;85;20987;-84
2022/08/03 10:21:16;;;;;;;5.28;4.50;;;;;;;24.05;62.50;96933.42;1684035;85;21418;-84
2022/08/03 10:23:41;;;;;;;5.53;5.03;;;;;;;24.10;62.10;96922.34;1686216;84;20984;-83
2022/08/03 10:26:07;;;;;;;5.40;4.90;;;;;;;24.17;63.85;96924.77;1665878;85;21000;-83
2022/08/03 10:28:43;;;;;;;5.67;5.17;;;;;;;24.22;63.70;96919.48;1638007;85;21066;-83
2022/08/03 10:31:09;;;;;;;5.70;5.05;;;;;;;24.29;64.40;96921.43;1683269;84;20994;-84
2022/08/03 10:33:37;;;;;;;5.75;5.17;;;;;;;24.34;65.25;96920.13;1687933;84;21054;-82
2022/08/03 10:36:03;;;;;;;5.90;5.40;;;;;;;24.36;62.48;96920.67;1686502;84;21023;-82
2022/08/03 10:38:34;;;;;;;5.15;4.75;;;;;;;24.40;63.09;96922.28;1686541;84;21548;-82
2022/08/03 10:40:59;;;;;;;5.37;4.97;;;;;;;24.32;64.96;96919.59;1686230;84;21060;-82
2022/08/03 10:43:30;;;;;;;6.53;5.10;;;;;;;24.26;63.36;96917.94;1681240;84;21174;-82
2022/08/03 10:45:56;;;;;;;5.28;4.78;;;;;;;24.19;62.12;96923.45;1678995;85;21374;-82
2022/08/03 10:48:22;;;;;;;5.37;4.92;;;;;;;24.22;61.52;96915.49;1682185;84;20992;-82
2022/08/03 10:50:48;;;;;;;5.33;4.92;;;;;;;24.33;63.35;96921.19;1684345;84;21008;-82
2022/08/03 10:53:14;;;;;;;6.08;5.45;;;;;;;24.41;63.48;96919.39;1677639;84;21044;-82
2022/08/03 10:58:50;;;;;;;7.08;6.03;;;;;;;24.53;61.17;96902.70;1675877;85;21050;-83
2022/08/03 11:01:16;;;;;;;7.25;5.65;;;;;;;24.54;59.57;96906.16;1680794;85;21031;-82
2022/08/03 11:03:57;;;;;;;5.78;5.17;;;;;;;24.61;62.68;96905.95;1682755;84;20957;-82
2022/08/03 11:06:24;;;;;;;6.08;5.50;;;;;;;24.65;64.65;96896.39;1679386;85;22324;-82
2022/08/03 11:09:15;;;;;;;6.12;5.62;;;;;;;24.62;63.97;96903.56;1682753;84;21092;-82
2022/08/03 11:11:42;;;;;;;6.08;5.58;;;;;;;24.66;60.02;96901.98;1678110;85;20977;-84
2022/08/03 11:14:12;;;;;;;5.67;5.15;;;;;;;24.71;57.78;96900.66;1680938;84;21115;-84
2022/08/03 11:16:45;;;;;;;5.90;5.28;;;;;;;24.77;60.41;96899.64;1678217;85;20965;-84
2022/08/03 11:19:13;;;;;;;6.25;5.70;;;;;;;24.84;58.86;96898.34;1673519;85;20999;-83
2022/08/03 11:21:53;;;;;;;5.62;5.12;;;;;;;24.91;63.14;96899.44;1679275;85;21007;-83
2022/08/03 11:24:45;;;;;;;5.40;4.95;;;;;;;24.91;63.14;96899.44;1603929;88;20984;-83
2022/08/03 11:27:27;;;;;;;4.78;4.28;;;;;;;24.91;58.00;96896.78;1620553;87;21027;-82
2022/08/03 11:30:21;;;;;;;4.80;4.35;;;;;;;24.93;57.03;96893.86;1671743;85;21056;-82
2022/08/03 11:32:51;;;;;;;5.10;4.70;;;;;;;25.15;58.34;96889.17;1677243;85;21545;-82
2022/08/03 11:35:22;;;;;;;5.20;4.70;;;;;;;25.15;58.34;96889.17;1666672;86;21021;-82
2022/08/03 11:38:02;;;;;;;4.83;4.43;;;;;;;25.24;58.40;96886.81;1669586;84;20980;-82
2022/08/03 11:40:41;;;;;;;5.10;4.60;;;;;;;25.37;55.33;96880.42;1661855;86;21890;-82
2022/08/03 11:43:25;;;;;;;5.80;5.25;;;;;;;25.37;55.33;96880.42;1668903;83;21103;-82
2022/08/03 11:46:06;;;;;;;5.28;4.78;;;;;;;25.43;56.69;96880.72;1691016;83;21370;-82
2022/08/03 11:48:42;;;;;;;5.33;4.87;;;;;;;25.46;56.25;96875.40;1690721;84;21000;-82
2022/08/03 11:51:26;;;;;;;5.10;4.65;;;;;;;25.57;55.97;96869.03;1688854;84;20990;-82
2022/08/03 11:53:58;;;;;;;5.22;4.83;;;;;;;25.60;57.71;96860.52;1689373;84;21001;-84